Startpagina
METAR-TAF:

METAR-TAF

Vliegvelden :

Galapagos, Ecuador

breedte: 00-54S, lengte: 089-36W, hoogte: 6 m

Actueel weer

Dit bericht is 48 minuten geleden gemaakt, om 16:00 UTC
Wind 8 kt uit het zuidzuidwesten
Temperatuur 26°C
Vochtigheid 84%
Druk 1012 hPa
Zicht 10 km of meer
Weinig wolken op 1600 ft
Gebroken wolken op 4000 ft

METAR: SEST 231600Z 20008KT 9999 FEW016 BKN040 26/23 Q1012 RMK A2990

Tijdstip: 10:48 (16:48 UTC)


TAF: ontbreekt

Waarnemingen en weersverwachtingen van meer dan 4000 vliegvelden (METAR en TAF).

De beschikbare stations zijn de gele en rode punten op de kaart.

Ga met uw muis naar het station om de naam te zien.

Klik dan om waarnemingen en weersverwachtingen te zien.

kaart wijzigen: klik op de groene knoppen met een zwart kruis om in te zoomen, op de groene knop met een streepje om uit te zoomen of op de groene pijlen voor aangrenzende kaarten.


METAR-TAF: